首页
METAR-TAF:

METAR-TAF

机场 :

Mackall Army Airfield

Camp Mackall, 北卡罗来纳州, 美国

纬度: 35-02N, 经度: 079-30W, 海拔: 115米

当前天气观测

该预报发布于18分钟前的13:15 UTC
静风
温度 2°C
湿度 93%
气压 1025 hPa
能見度: 0.6公里

METAR: KHFF 171315Z AUTO 00000KT 3/8SM FG VV001 02/01 A3027 RMK AO2 VIS 3/8V1 1/8 SLP269

时间: 08:33 (13:33 UTC)


TAF: 丢失

超过4000个机场的气象观测和天气预报(METAR&TAF报告)。

可查询的气象台以黄色和红色小点在地图上表示。

将鼠标移到小点上方,可查看气象台名称。

然后点击查看天气观测和预报。

如需切换地图:点击带黑十字的绿色按钮放大地图;点击带横线的绿色按钮缩小地图;或者点击绿色箭头查看邻近地区的地图。


METAR-TAF: